Hollister, Oklahoma
Current Conditions -  °F | °C
As of 12:53 PM on Saturday 25 Oct 2014 (Local Time) from KFDR Reporting Station
Clear Clear  
Wind Chill: 87°   Ceiling: Unl
Heat Index: 87°   Visibility: 10mi
Dew Point: 53°   Wind: 12mph
Humidity: 31%   Direction: 240°WSW
Pressure: 30.07"   Gusts: NA
Location:  34.34°N, 98.87°W
Report Text: KFDR 251753Z AUTO 24010KT 10SM CLR 31/12 A3007 RMK AO2 SLP167 T03060117 10306 20144 58006 $
Loading
Personal Weather Stations






























Interactive Weather Map
Tropical Storm Tracking
New forecast layout! Learn more

10-Day Weather Forecast

Advertisements
Track Severe Weather on mobile